sensor_id;sensor_type;location;lat;lon;timestamp;temperature;humidity
25512;DHT22;13414;44.534;18.700;2022-12-29T00:00:20;2.60;99.90
25512;DHT22;13414;44.534;18.700;2022-12-29T00:02:48;2.50;99.90
25512;DHT22;13414;44.534;18.700;2022-12-29T00:05:17;2.50;99.90
25512;DHT22;13414;44.534;18.700;2022-12-29T00:07:44;2.50;99.90
25512;DHT22;13414;44.534;18.700;2022-12-29T00:10:11;2.50;99.90
25512;DHT22;13414;44.534;18.700;2022-12-29T00:12:39;2.60;99.90
25512;DHT22;13414;44.534;18.700;2022-12-29T00:15:23;2.50;99.90
25512;DHT22;13414;44.534;18.700;2022-12-29T00:18:07;2.50;99.90
25512;DHT22;13414;44.534;18.700;2022-12-29T00:20:38;2.50;99.90
25512;DHT22;13414;44.534;18.700;2022-12-29T00:23:23;2.50;99.90
25512;DHT22;13414;44.534;18.700;2022-12-29T00:26:13;2.50;99.90
25512;DHT22;13414;44.534;18.700;2022-12-29T00:28:58;2.50;99.90
25512;DHT22;13414;44.534;18.700;2022-12-29T00:31:42;2.60;99.90
25512;DHT22;13414;44.534;18.700;2022-12-29T00:34:27;2.70;99.90
25512;DHT22;13414;44.534;18.700;2022-12-29T00:37:13;2.60;99.90
25512;DHT22;13414;44.534;18.700;2022-12-29T00:39:41;2.60;99.90
25512;DHT22;13414;44.534;18.700;2022-12-29T00:42:26;2.60;99.90
25512;DHT22;13414;44.534;18.700;2022-12-29T00:45:11;2.60;99.90
25512;DHT22;13414;44.534;18.700;2022-12-29T00:47:38;2.70;99.90
25512;DHT22;13414;44.534;18.700;2022-12-29T00:50:07;2.70;99.90
25512;DHT22;13414;44.534;18.700;2022-12-29T00:52:35;2.70;99.90
25512;DHT22;13414;44.534;18.700;2022-12-29T00:55:03;2.70;99.90
25512;DHT22;13414;44.534;18.700;2022-12-29T00:57:31;2.70;99.90
25512;DHT22;13414;44.534;18.700;2022-12-29T00:59:58;2.70;99.90
25512;DHT22;13414;44.534;18.700;2022-12-29T01:02:26;2.60;99.90
25512;DHT22;13414;44.534;18.700;2022-12-29T01:04:53;2.60;99.90
25512;DHT22;13414;44.534;18.700;2022-12-29T01:07:20;2.50;99.90
25512;DHT22;13414;44.534;18.700;2022-12-29T01:09:49;2.40;99.90
25512;DHT22;13414;44.534;18.700;2022-12-29T01:12:35;2.30;99.90
25512;DHT22;13414;44.534;18.700;2022-12-29T01:15:12;2.30;99.90
25512;DHT22;13414;44.534;18.700;2022-12-29T01:17:41;2.20;99.90
25512;DHT22;13414;44.534;18.700;2022-12-29T01:20:10;2.20;99.90
25512;DHT22;13414;44.534;18.700;2022-12-29T01:22:37;2.20;99.90
25512;DHT22;13414;44.534;18.700;2022-12-29T01:25:07;2.10;99.90
25512;DHT22;13414;44.534;18.700;2022-12-29T01:27:34;2.10;99.90
25512;DHT22;13414;44.534;18.700;2022-12-29T01:30:02;2.10;99.90
25512;DHT22;13414;44.534;18.700;2022-12-29T01:32:31;2.20;99.90
25512;DHT22;13414;44.534;18.700;2022-12-29T01:34:58;2.20;99.90
25512;DHT22;13414;44.534;18.700;2022-12-29T01:37:26;2.20;99.90
25512;DHT22;13414;44.534;18.700;2022-12-29T01:39:53;2.20;99.90
25512;DHT22;13414;44.534;18.700;2022-12-29T01:42:24;2.30;99.90
25512;DHT22;13414;44.534;18.700;2022-12-29T01:44:53;2.30;99.90
25512;DHT22;13414;44.534;18.700;2022-12-29T01:47:28;2.20;99.90
25512;DHT22;13414;44.534;18.700;2022-12-29T01:50:00;2.20;99.90
25512;DHT22;13414;44.534;18.700;2022-12-29T01:52:31;2.20;99.90
25512;DHT22;13414;44.534;18.700;2022-12-29T01:55:02;2.10;99.90
25512;DHT22;13414;44.534;18.700;2022-12-29T01:57:34;2.10;99.90
25512;DHT22;13414;44.534;18.700;2022-12-29T02:00:06;2.00;99.90
25512;DHT22;13414;44.534;18.700;2022-12-29T02:02:42;2.10;99.90
25512;DHT22;13414;44.534;18.700;2022-12-29T02:05:14;2.00;99.90
25512;DHT22;13414;44.534;18.700;2022-12-29T02:07:45;1.90;99.90
25512;DHT22;13414;44.534;18.700;2022-12-29T02:10:14;1.90;99.90
25512;DHT22;13414;44.534;18.700;2022-12-29T02:12:42;1.80;99.90
25512;DHT22;13414;44.534;18.700;2022-12-29T02:15:10;1.80;99.90
25512;DHT22;13414;44.534;18.700;2022-12-29T02:18:02;1.80;99.90
25512;DHT22;13414;44.534;18.700;2022-12-29T02:27:34;1.60;99.90
25512;DHT22;13414;44.534;18.700;2022-12-29T02:30:15;1.60;99.90
25512;DHT22;13414;44.534;18.700;2022-12-29T02:32:51;1.60;99.90
25512;DHT22;13414;44.534;18.700;2022-12-29T02:35:27;1.60;99.90
25512;DHT22;13414;44.534;18.700;2022-12-29T02:38:05;1.60;99.90
25512;DHT22;13414;44.534;18.700;2022-12-29T02:40:39;1.70;99.90
25512;DHT22;13414;44.534;18.700;2022-12-29T02:43:17;1.60;99.90
25512;DHT22;13414;44.534;18.700;2022-12-29T02:45:51;1.50;99.90
25512;DHT22;13414;44.534;18.700;2022-12-29T02:48:28;1.50;99.90
25512;DHT22;13414;44.534;18.700;2022-12-29T02:51:00;1.50;99.90
25512;DHT22;13414;44.534;18.700;2022-12-29T02:53:30;1.50;99.90
25512;DHT22;13414;44.534;18.700;2022-12-29T02:56:18;1.60;99.90
25512;DHT22;13414;44.534;18.700;2022-12-29T02:58:46;1.50;99.90
25512;DHT22;13414;44.534;18.700;2022-12-29T03:01:26;1.50;99.90
25512;DHT22;13414;44.534;18.700;2022-12-29T03:04:17;1.40;99.90
25512;DHT22;13414;44.534;18.700;2022-12-29T03:06:52;1.40;99.90
25512;DHT22;13414;44.534;18.700;2022-12-29T03:09:31;1.40;99.90
25512;DHT22;13414;44.534;18.700;2022-12-29T03:12:11;1.30;99.90
25512;DHT22;13414;44.534;18.700;2022-12-29T03:14:54;1.30;99.90
25512;DHT22;13414;44.534;18.700;2022-12-29T03:17:50;1.30;99.90
25512;DHT22;13414;44.534;18.700;2022-12-29T03:20:24;1.40;99.90
25512;DHT22;13414;44.534;18.700;2022-12-29T03:22:55;1.40;99.90
25512;DHT22;13414;44.534;18.700;2022-12-29T03:25:30;1.30;99.90
25512;DHT22;13414;44.534;18.700;2022-12-29T03:28:03;1.30;99.90
25512;DHT22;13414;44.534;18.700;2022-12-29T03:30:39;1.20;99.90
25512;DHT22;13414;44.534;18.700;2022-12-29T03:33:09;1.20;99.90
25512;DHT22;13414;44.534;18.700;2022-12-29T03:35:42;1.20;99.90
25512;DHT22;13414;44.534;18.700;2022-12-29T03:38:16;1.20;99.90
25512;DHT22;13414;44.534;18.700;2022-12-29T03:40:46;1.20;99.90
25512;DHT22;13414;44.534;18.700;2022-12-29T03:43:15;1.10;99.90
25512;DHT22;13414;44.534;18.700;2022-12-29T03:45:44;1.10;99.90
25512;DHT22;13414;44.534;18.700;2022-12-29T03:48:12;1.10;99.90
25512;DHT22;13414;44.534;18.700;2022-12-29T03:50:42;1.10;99.90
25512;DHT22;13414;44.534;18.700;2022-12-29T03:53:09;1.20;99.90
25512;DHT22;13414;44.534;18.700;2022-12-29T03:55:38;1.20;99.90
25512;DHT22;13414;44.534;18.700;2022-12-29T03:58:06;1.20;99.90
25512;DHT22;13414;44.534;18.700;2022-12-29T04:00:51;1.20;99.90
25512;DHT22;13414;44.534;18.700;2022-12-29T04:03:19;1.10;99.90
25512;DHT22;13414;44.534;18.700;2022-12-29T04:05:48;1.00;99.90
25512;DHT22;13414;44.534;18.700;2022-12-29T04:08:16;1.00;99.90
25512;DHT22;13414;44.534;18.700;2022-12-29T04:10:43;1.00;99.90
25512;DHT22;13414;44.534;18.700;2022-12-29T04:13:13;1.10;99.90
25512;DHT22;13414;44.534;18.700;2022-12-29T04:15:42;1.00;99.90
25512;DHT22;13414;44.534;18.700;2022-12-29T04:18:11;1.00;99.90
25512;DHT22;13414;44.534;18.700;2022-12-29T04:20:38;0.90;99.90
25512;DHT22;13414;44.534;18.700;2022-12-29T04:23:25;1.00;99.90
25512;DHT22;13414;44.534;18.700;2022-12-29T04:25:53;1.00;99.90
25512;DHT22;13414;44.534;18.700;2022-12-29T04:28:20;1.00;99.90
25512;DHT22;13414;44.534;18.700;2022-12-29T04:30:48;1.00;99.90
25512;DHT22;13414;44.534;18.700;2022-12-29T04:33:19;1.00;99.90
25512;DHT22;13414;44.534;18.700;2022-12-29T04:35:47;1.10;99.90
25512;DHT22;13414;44.534;18.700;2022-12-29T04:38:15;1.10;99.90
25512;DHT22;13414;44.534;18.700;2022-12-29T04:40:44;1.20;99.90
25512;DHT22;13414;44.534;18.700;2022-12-29T04:43:13;1.20;99.90
25512;DHT22;13414;44.534;18.700;2022-12-29T04:46:00;1.20;99.90
25512;DHT22;13414;44.534;18.700;2022-12-29T04:48:35;1.30;99.90
25512;DHT22;13414;44.534;18.700;2022-12-29T04:51:25;1.30;99.90
25512;DHT22;13414;44.534;18.700;2022-12-29T04:53:52;1.30;99.90
25512;DHT22;13414;44.534;18.700;2022-12-29T04:56:21;1.30;99.90
25512;DHT22;13414;44.534;18.700;2022-12-29T04:58:49;1.40;99.90
25512;DHT22;13414;44.534;18.700;2022-12-29T05:01:16;1.40;99.90
25512;DHT22;13414;44.534;18.700;2022-12-29T05:03:43;1.50;99.90
25512;DHT22;13414;44.534;18.700;2022-12-29T05:06:11;1.50;99.90
25512;DHT22;13414;44.534;18.700;2022-12-29T05:08:38;1.50;99.90
25512;DHT22;13414;44.534;18.700;2022-12-29T05:11:06;1.60;99.90
25512;DHT22;13414;44.534;18.700;2022-12-29T05:13:35;1.60;99.90
25512;DHT22;13414;44.534;18.700;2022-12-29T05:16:04;1.60;99.90
25512;DHT22;13414;44.534;18.700;2022-12-29T05:18:31;1.60;99.90
25512;DHT22;13414;44.534;18.700;2022-12-29T05:20:59;1.60;99.90
25512;DHT22;13414;44.534;18.700;2022-12-29T05:23:27;1.60;99.90
25512;DHT22;13414;44.534;18.700;2022-12-29T05:25:59;1.70;99.90
25512;DHT22;13414;44.534;18.700;2022-12-29T05:28:32;1.70;99.90
25512;DHT22;13414;44.534;18.700;2022-12-29T05:31:11;1.70;99.90
25512;DHT22;13414;44.534;18.700;2022-12-29T05:33:39;1.80;99.90
25512;DHT22;13414;44.534;18.700;2022-12-29T05:36:08;1.80;99.90
25512;DHT22;13414;44.534;18.700;2022-12-29T05:38:39;1.80;99.90
25512;DHT22;13414;44.534;18.700;2022-12-29T05:41:07;1.70;99.90
25512;DHT22;13414;44.534;18.700;2022-12-29T05:43:57;1.80;99.90
25512;DHT22;13414;44.534;18.700;2022-12-29T05:46:40;1.80;99.90
25512;DHT22;13414;44.534;18.700;2022-12-29T05:49:16;1.90;99.90
25512;DHT22;13414;44.534;18.700;2022-12-29T05:51:53;1.80;99.90
25512;DHT22;13414;44.534;18.700;2022-12-29T05:54:21;1.80;99.90
25512;DHT22;13414;44.534;18.700;2022-12-29T05:56:49;1.90;99.90
25512;DHT22;13414;44.534;18.700;2022-12-29T05:59:16;1.90;99.90
25512;DHT22;13414;44.534;18.700;2022-12-29T06:01:45;1.90;99.90
25512;DHT22;13414;44.534;18.700;2022-12-29T06:04:13;1.90;99.90
25512;DHT22;13414;44.534;18.700;2022-12-29T06:06:40;1.90;99.90
25512;DHT22;13414;44.534;18.700;2022-12-29T06:09:15;2.00;99.90
25512;DHT22;13414;44.534;18.700;2022-12-29T06:11:42;2.00;99.90
25512;DHT22;13414;44.534;18.700;2022-12-29T06:14:10;2.00;99.90
25512;DHT22;13414;44.534;18.700;2022-12-29T06:16:38;2.00;99.90
25512;DHT22;13414;44.534;18.700;2022-12-29T06:19:11;2.00;99.90
25512;DHT22;13414;44.534;18.700;2022-12-29T06:21:40;2.10;99.90
25512;DHT22;13414;44.534;18.700;2022-12-29T06:24:09;2.10;99.90
25512;DHT22;13414;44.534;18.700;2022-12-29T06:26:37;2.20;99.90
25512;DHT22;13414;44.534;18.700;2022-12-29T06:29:08;2.20;99.90
25512;DHT22;13414;44.534;18.700;2022-12-29T06:31:35;2.30;99.90
25512;DHT22;13414;44.534;18.700;2022-12-29T06:34:04;2.30;99.90
25512;DHT22;13414;44.534;18.700;2022-12-29T06:36:33;2.40;99.90
25512;DHT22;13414;44.534;18.700;2022-12-29T06:39:00;2.40;99.90
25512;DHT22;13414;44.534;18.700;2022-12-29T06:41:27;2.50;99.90
25512;DHT22;13414;44.534;18.700;2022-12-29T06:44:33;2.60;99.90
25512;DHT22;13414;44.534;18.700;2022-12-29T06:47:05;2.60;99.90
25512;DHT22;13414;44.534;18.700;2022-12-29T06:49:32;2.70;99.90
25512;DHT22;13414;44.534;18.700;2022-12-29T06:52:01;2.70;99.90
25512;DHT22;13414;44.534;18.700;2022-12-29T06:54:30;2.70;99.90
25512;DHT22;13414;44.534;18.700;2022-12-29T06:56:57;2.60;99.90
25512;DHT22;13414;44.534;18.700;2022-12-29T06:59:25;2.60;99.90
25512;DHT22;13414;44.534;18.700;2022-12-29T07:01:52;2.60;99.90
25512;DHT22;13414;44.534;18.700;2022-12-29T07:04:20;2.60;99.90
25512;DHT22;13414;44.534;18.700;2022-12-29T07:06:48;2.50;99.90
25512;DHT22;13414;44.534;18.700;2022-12-29T07:09:17;2.40;99.90
25512;DHT22;13414;44.534;18.700;2022-12-29T07:11:45;2.40;99.90
25512;DHT22;13414;44.534;18.700;2022-12-29T07:14:13;2.40;99.90
25512;DHT22;13414;44.534;18.700;2022-12-29T07:16:40;2.40;99.90
25512;DHT22;13414;44.534;18.700;2022-12-29T07:19:07;2.40;99.90
25512;DHT22;13414;44.534;18.700;2022-12-29T07:21:35;2.50;99.90
25512;DHT22;13414;44.534;18.700;2022-12-29T07:24:02;2.70;99.90
25512;DHT22;13414;44.534;18.700;2022-12-29T07:26:31;2.60;99.90
25512;DHT22;13414;44.534;18.700;2022-12-29T07:29:00;2.70;99.90
25512;DHT22;13414;44.534;18.700;2022-12-29T07:31:28;2.70;99.90
25512;DHT22;13414;44.534;18.700;2022-12-29T07:33:55;2.80;99.90
25512;DHT22;13414;44.534;18.700;2022-12-29T07:36:23;2.90;99.90
25512;DHT22;13414;44.534;18.700;2022-12-29T07:38:50;3.00;99.90
25512;DHT22;13414;44.534;18.700;2022-12-29T07:41:17;3.20;99.90
25512;DHT22;13414;44.534;18.700;2022-12-29T07:43:48;3.30;99.90
25512;DHT22;13414;44.534;18.700;2022-12-29T07:46:30;3.30;99.90
25512;DHT22;13414;44.534;18.700;2022-12-29T07:48:58;3.40;99.90
25512;DHT22;13414;44.534;18.700;2022-12-29T07:51:26;3.50;99.90
25512;DHT22;13414;44.534;18.700;2022-12-29T07:53:53;3.60;99.90
25512;DHT22;13414;44.534;18.700;2022-12-29T07:56:21;3.80;99.90
25512;DHT22;13414;44.534;18.700;2022-12-29T07:58:50;3.90;99.90
25512;DHT22;13414;44.534;18.700;2022-12-29T08:01:18;3.90;99.90
25512;DHT22;13414;44.534;18.700;2022-12-29T08:03:46;4.10;99.90
25512;DHT22;13414;44.534;18.700;2022-12-29T08:06:13;4.20;99.90
25512;DHT22;13414;44.534;18.700;2022-12-29T08:08:41;4.30;99.90
25512;DHT22;13414;44.534;18.700;2022-12-29T08:11:08;4.40;99.90
25512;DHT22;13414;44.534;18.700;2022-12-29T08:13:36;4.60;99.90
25512;DHT22;13414;44.534;18.700;2022-12-29T08:16:05;4.70;99.90
25512;DHT22;13414;44.534;18.700;2022-12-29T08:18:33;4.90;40.80
25512;DHT22;13414;44.534;18.700;2022-12-29T08:21:02;5.10;1.00
25512;DHT22;13414;44.534;18.700;2022-12-29T08:23:30;5.40;1.00
25512;DHT22;13414;44.534;18.700;2022-12-29T08:25:58;5.60;1.00
25512;DHT22;13414;44.534;18.700;2022-12-29T08:28:26;5.80;1.00
25512;DHT22;13414;44.534;18.700;2022-12-29T08:30:53;5.80;99.90
25512;DHT22;13414;44.534;18.700;2022-12-29T08:33:22;5.90;22.00
25512;DHT22;13414;44.534;18.700;2022-12-29T08:35:50;5.90;99.90
25512;DHT22;13414;44.534;18.700;2022-12-29T08:38:17;6.00;99.90
25512;DHT22;13414;44.534;18.700;2022-12-29T08:40:45;6.10;99.90
25512;DHT22;13414;44.534;18.700;2022-12-29T08:43:12;6.10;99.90
25512;DHT22;13414;44.534;18.700;2022-12-29T08:45:39;6.10;35.70
25512;DHT22;13414;44.534;18.700;2022-12-29T08:48:07;6.20;99.90
25512;DHT22;13414;44.534;18.700;2022-12-29T08:50:36;6.30;99.90
25512;DHT22;13414;44.534;18.700;2022-12-29T08:53:03;6.40;99.90
25512;DHT22;13414;44.534;18.700;2022-12-29T08:55:31;6.50;1.00
25512;DHT22;13414;44.534;18.700;2022-12-29T08:57:58;6.60;99.90
25512;DHT22;13414;44.534;18.700;2022-12-29T09:00:27;6.70;1.00
25512;DHT22;13414;44.534;18.700;2022-12-29T09:02:55;6.70;1.00
25512;DHT22;13414;44.534;18.700;2022-12-29T09:05:23;6.70;1.00
25512;DHT22;13414;44.534;18.700;2022-12-29T09:07:52;6.70;1.00
25512;DHT22;13414;44.534;18.700;2022-12-29T09:10:20;6.80;99.90
25512;DHT22;13414;44.534;18.700;2022-12-29T09:12:47;7.00;99.90
25512;DHT22;13414;44.534;18.700;2022-12-29T09:15:14;7.10;1.00
25512;DHT22;13414;44.534;18.700;2022-12-29T09:17:42;7.30;1.00
25512;DHT22;13414;44.534;18.700;2022-12-29T09:20:17;7.30;99.90
25512;DHT22;13414;44.534;18.700;2022-12-29T09:22:45;7.40;1.00
25512;DHT22;13414;44.534;18.700;2022-12-29T09:25:14;7.50;99.90
25512;DHT22;13414;44.534;18.700;2022-12-29T09:27:43;7.50;1.00
25512;DHT22;13414;44.534;18.700;2022-12-29T09:30:12;7.50;99.90
25512;DHT22;13414;44.534;18.700;2022-12-29T09:32:40;7.50;99.90
25512;DHT22;13414;44.534;18.700;2022-12-29T09:35:08;7.60;1.00
25512;DHT22;13414;44.534;18.700;2022-12-29T09:37:36;7.70;1.00
25512;DHT22;13414;44.534;18.700;2022-12-29T09:40:04;8.00;1.00
25512;DHT22;13414;44.534;18.700;2022-12-29T09:42:40;8.20;98.30
25512;DHT22;13414;44.534;18.700;2022-12-29T09:45:15;8.30;99.90
25512;DHT22;13414;44.534;18.700;2022-12-29T09:47:44;8.40;1.00
25512;DHT22;13414;44.534;18.700;2022-12-29T09:50:21;8.40;1.00
25512;DHT22;13414;44.534;18.700;2022-12-29T09:52:54;8.40;99.90
25512;DHT22;13414;44.534;18.700;2022-12-29T09:55:25;8.50;99.90
25512;DHT22;13414;44.534;18.700;2022-12-29T09:58:00;8.60;1.00
25512;DHT22;13414;44.534;18.700;2022-12-29T10:00:36;8.70;1.00
25512;DHT22;13414;44.534;18.700;2022-12-29T10:03:09;8.80;1.00
25512;DHT22;13414;44.534;18.700;2022-12-29T10:05:47;8.90;1.00
25512;DHT22;13414;44.534;18.700;2022-12-29T10:08:25;9.00;90.00
25512;DHT22;13414;44.534;18.700;2022-12-29T10:10:55;9.10;99.90
25512;DHT22;13414;44.534;18.700;2022-12-29T10:13:36;9.30;1.00
25512;DHT22;13414;44.534;18.700;2022-12-29T10:16:14;9.40;1.00
25512;DHT22;13414;44.534;18.700;2022-12-29T10:18:58;9.50;1.00
25512;DHT22;13414;44.534;18.700;2022-12-29T10:21:38;9.60;99.90
25512;DHT22;13414;44.534;18.700;2022-12-29T10:24:10;9.80;99.90
25512;DHT22;13414;44.534;18.700;2022-12-29T10:26:40;10.00;1.00
25512;DHT22;13414;44.534;18.700;2022-12-29T10:29:15;10.10;1.00
25512;DHT22;13414;44.534;18.700;2022-12-29T10:31:46;10.20;1.00
25512;DHT22;13414;44.534;18.700;2022-12-29T10:34:21;10.30;1.00
25512;DHT22;13414;44.534;18.700;2022-12-29T10:36:51;10.40;1.00
25512;DHT22;13414;44.534;18.700;2022-12-29T10:39:28;10.70;99.90
25512;DHT22;13414;44.534;18.700;2022-12-29T10:42:04;10.90;1.00
25512;DHT22;13414;44.534;18.700;2022-12-29T10:44:39;11.20;1.00
25512;DHT22;13414;44.534;18.700;2022-12-29T10:47:12;11.50;53.50
25512;DHT22;13414;44.534;18.700;2022-12-29T10:49:42;11.70;1.00
25512;DHT22;13414;44.534;18.700;2022-12-29T10:52:13;11.80;1.00
25512;DHT22;13414;44.534;18.700;2022-12-29T10:54:45;12.00;99.90
25512;DHT22;13414;44.534;18.700;2022-12-29T10:57:26;12.30;99.90
25512;DHT22;13414;44.534;18.700;2022-12-29T10:59:55;12.60;1.00
25512;DHT22;13414;44.534;18.700;2022-12-29T11:02:42;12.70;1.00
25512;DHT22;13414;44.534;18.700;2022-12-29T11:05:16;12.80;1.00
25512;DHT22;13414;44.534;18.700;2022-12-29T11:07:47;12.90;1.00
25512;DHT22;13414;44.534;18.700;2022-12-29T11:10:20;13.10;99.90
25512;DHT22;13414;44.534;18.700;2022-12-29T11:12:57;13.10;1.00
25512;DHT22;13414;44.534;18.700;2022-12-29T11:15:26;13.30;99.90
25512;DHT22;13414;44.534;18.700;2022-12-29T11:17:57;13.40;99.90
25512;DHT22;13414;44.534;18.700;2022-12-29T11:20:36;13.60;99.90
25512;DHT22;13414;44.534;18.700;2022-12-29T11:23:20;13.80;99.90
25512;DHT22;13414;44.534;18.700;2022-12-29T11:26:06;14.10;99.90
25512;DHT22;13414;44.534;18.700;2022-12-29T11:28:34;14.30;1.00
25512;DHT22;13414;44.534;18.700;2022-12-29T11:31:07;14.40;1.00
25512;DHT22;13414;44.534;18.700;2022-12-29T11:33:38;14.60;1.00
25512;DHT22;13414;44.534;18.700;2022-12-29T11:36:07;14.70;1.00
25512;DHT22;13414;44.534;18.700;2022-12-29T11:38:40;14.90;1.00
25512;DHT22;13414;44.534;18.700;2022-12-29T11:41:12;15.10;1.00
25512;DHT22;13414;44.534;18.700;2022-12-29T11:43:42;15.10;1.00
25512;DHT22;13414;44.534;18.700;2022-12-29T11:46:16;15.30;1.00
25512;DHT22;13414;44.534;18.700;2022-12-29T11:48:46;15.20;1.00
25512;DHT22;13414;44.534;18.700;2022-12-29T11:51:22;15.30;1.00
25512;DHT22;13414;44.534;18.700;2022-12-29T11:53:52;15.20;1.00
25512;DHT22;13414;44.534;18.700;2022-12-29T11:56:33;15.00;1.00
25512;DHT22;13414;44.534;18.700;2022-12-29T11:59:34;15.00;1.00
25512;DHT22;13414;44.534;18.700;2022-12-29T12:02:29;14.90;1.00
25512;DHT22;13414;44.534;18.700;2022-12-29T12:05:03;15.00;1.00
25512;DHT22;13414;44.534;18.700;2022-12-29T12:07:41;15.10;1.00
25512;DHT22;13414;44.534;18.700;2022-12-29T12:10:17;15.20;1.00
25512;DHT22;13414;44.534;18.700;2022-12-29T12:12:51;15.20;1.00
25512;DHT22;13414;44.534;18.700;2022-12-29T12:15:23;15.20;1.00
25512;DHT22;13414;44.534;18.700;2022-12-29T12:18:01;15.20;1.00
25512;DHT22;13414;44.534;18.700;2022-12-29T12:20:38;15.30;1.00
25512;DHT22;13414;44.534;18.700;2022-12-29T12:23:18;15.30;1.00
25512;DHT22;13414;44.534;18.700;2022-12-29T12:25:56;15.40;1.00
25512;DHT22;13414;44.534;18.700;2022-12-29T12:28:26;15.40;1.00
25512;DHT22;13414;44.534;18.700;2022-12-29T12:30:58;15.40;1.00
25512;DHT22;13414;44.534;18.700;2022-12-29T12:33:29;15.40;1.00
25512;DHT22;13414;44.534;18.700;2022-12-29T12:36:13;15.50;1.00
25512;DHT22;13414;44.534;18.700;2022-12-29T12:38:46;15.40;1.00
25512;DHT22;13414;44.534;18.700;2022-12-29T12:41:24;15.30;1.00
25512;DHT22;13414;44.534;18.700;2022-12-29T12:44:01;15.40;1.00
25512;DHT22;13414;44.534;18.700;2022-12-29T12:52:49;15.50;1.00
25512;DHT22;13414;44.534;18.700;2022-12-29T12:55:35;15.50;1.00
25512;DHT22;13414;44.534;18.700;2022-12-29T12:58:12;15.50;1.00
25512;DHT22;13414;44.534;18.700;2022-12-29T13:00:58;15.50;1.00
25512;DHT22;13414;44.534;18.700;2022-12-29T13:03:41;15.50;1.00
25512;DHT22;13414;44.534;18.700;2022-12-29T13:06:21;15.50;1.00
25512;DHT22;13414;44.534;18.700;2022-12-29T13:09:03;15.50;1.00
25512;DHT22;13414;44.534;18.700;2022-12-29T13:11:47;15.50;1.00
25512;DHT22;13414;44.534;18.700;2022-12-29T13:14:24;15.50;1.00
25512;DHT22;13414;44.534;18.700;2022-12-29T13:17:03;15.50;1.00
25512;DHT22;13414;44.534;18.700;2022-12-29T13:19:39;15.30;1.00
25512;DHT22;13414;44.534;18.700;2022-12-29T13:22:18;15.30;1.00
25512;DHT22;13414;44.534;18.700;2022-12-29T13:24:54;15.10;1.00
25512;DHT22;13414;44.534;18.700;2022-12-29T13:27:31;15.10;1.00
25512;DHT22;13414;44.534;18.700;2022-12-29T13:30:05;15.10;1.00
25512;DHT22;13414;44.534;18.700;2022-12-29T13:32:46;15.20;1.00
25512;DHT22;13414;44.534;18.700;2022-12-29T13:35:41;15.20;1.00
25512;DHT22;13414;44.534;18.700;2022-12-29T13:38:18;15.10;1.00
25512;DHT22;13414;44.534;18.700;2022-12-29T13:40:51;15.10;1.00
25512;DHT22;13414;44.534;18.700;2022-12-29T13:43:21;15.10;1.00
25512;DHT22;13414;44.534;18.700;2022-12-29T13:45:57;15.10;1.00
25512;DHT22;13414;44.534;18.700;2022-12-29T13:48:26;15.10;1.00
25512;DHT22;13414;44.534;18.700;2022-12-29T13:50:58;15.20;1.00
25512;DHT22;13414;44.534;18.700;2022-12-29T13:53:34;15.30;1.00
25512;DHT22;13414;44.534;18.700;2022-12-29T13:56:08;15.20;1.00
25512;DHT22;13414;44.534;18.700;2022-12-29T13:58:43;15.10;1.00
25512;DHT22;13414;44.534;18.700;2022-12-29T14:01:17;15.10;1.00
25512;DHT22;13414;44.534;18.700;2022-12-29T14:03:49;15.10;1.00
25512;DHT22;13414;44.534;18.700;2022-12-29T14:06:23;15.00;1.00
25512;DHT22;13414;44.534;18.700;2022-12-29T14:08:55;14.80;1.00
25512;DHT22;13414;44.534;18.700;2022-12-29T14:11:28;14.70;1.00
25512;DHT22;13414;44.534;18.700;2022-12-29T14:13:57;14.50;1.00
25512;DHT22;13414;44.534;18.700;2022-12-29T14:16:30;14.30;1.00
25512;DHT22;13414;44.534;18.700;2022-12-29T14:19:10;14.20;1.00
25512;DHT22;13414;44.534;18.700;2022-12-29T14:21:39;14.10;1.00
25512;DHT22;13414;44.534;18.700;2022-12-29T14:24:38;14.00;1.00
25512;DHT22;13414;44.534;18.700;2022-12-29T14:27:44;13.90;1.00
25512;DHT22;13414;44.534;18.700;2022-12-29T14:33:18;13.70;18.30
25512;DHT22;13414;44.534;18.700;2022-12-29T14:35:48;13.50;99.90
25512;DHT22;13414;44.534;18.700;2022-12-29T14:38:29;13.40;99.90
25512;DHT22;13414;44.534;18.700;2022-12-29T14:41:27;13.40;1.00
25512;DHT22;13414;44.534;18.700;2022-12-29T14:44:09;13.30;1.00
25512;DHT22;13414;44.534;18.700;2022-12-29T14:46:54;13.10;1.00
25512;DHT22;13414;44.534;18.700;2022-12-29T14:49:24;12.90;1.00
25512;DHT22;13414;44.534;18.700;2022-12-29T14:51:53;12.80;99.90
25512;DHT22;13414;44.534;18.700;2022-12-29T14:54:44;12.70;99.90
25512;DHT22;13414;44.534;18.700;2022-12-29T14:57:43;12.60;99.90
25512;DHT22;13414;44.534;18.700;2022-12-29T15:00:18;12.50;1.00
25512;DHT22;13414;44.534;18.700;2022-12-29T15:02:49;12.50;1.00
25512;DHT22;13414;44.534;18.700;2022-12-29T15:05:30;12.40;1.00
25512;DHT22;13414;44.534;18.700;2022-12-29T15:07:59;12.30;1.00
25512;DHT22;13414;44.534;18.700;2022-12-29T15:10:35;12.30;1.00
25512;DHT22;13414;44.534;18.700;2022-12-29T15:13:15;12.20;1.00
25512;DHT22;13414;44.534;18.700;2022-12-29T15:15:43;12.20;1.00
25512;DHT22;13414;44.534;18.700;2022-12-29T15:18:24;12.00;1.00
25512;DHT22;13414;44.534;18.700;2022-12-29T15:20:55;11.90;99.90
25512;DHT22;13414;44.534;18.700;2022-12-29T15:23:24;11.80;99.90
25512;DHT22;13414;44.534;18.700;2022-12-29T15:25:55;11.70;1.00
25512;DHT22;13414;44.534;18.700;2022-12-29T15:28:26;11.60;1.00
25512;DHT22;13414;44.534;18.700;2022-12-29T15:30:55;11.50;1.00
25512;DHT22;13414;44.534;18.700;2022-12-29T15:33:26;11.40;1.00
25512;DHT22;13414;44.534;18.700;2022-12-29T15:35:56;11.30;99.90
25512;DHT22;13414;44.534;18.700;2022-12-29T15:38:26;11.10;1.00
25512;DHT22;13414;44.534;18.700;2022-12-29T15:40:56;10.90;1.00
25512;DHT22;13414;44.534;18.700;2022-12-29T15:46:14;10.60;99.90
25512;DHT22;13414;44.534;18.700;2022-12-29T15:48:42;10.60;1.00
25512;DHT22;13414;44.534;18.700;2022-12-29T15:51:18;10.60;99.90
25512;DHT22;13414;44.534;18.700;2022-12-29T15:53:47;10.60;1.00
25512;DHT22;13414;44.534;18.700;2022-12-29T15:56:16;10.60;1.00
25512;DHT22;13414;44.534;18.700;2022-12-29T15:58:47;10.60;99.90
25512;DHT22;13414;44.534;18.700;2022-12-29T16:01:19;10.60;99.90
25512;DHT22;13414;44.534;18.700;2022-12-29T16:03:51;10.60;1.00
25512;DHT22;13414;44.534;18.700;2022-12-29T16:06:29;10.50;1.00
25512;DHT22;13414;44.534;18.700;2022-12-29T16:08:59;10.40;99.90
25512;DHT22;13414;44.534;18.700;2022-12-29T16:11:31;10.40;99.90
25512;DHT22;13414;44.534;18.700;2022-12-29T16:14:01;10.20;99.90
25512;DHT22;13414;44.534;18.700;2022-12-29T16:16:32;10.10;1.00
25512;DHT22;13414;44.534;18.700;2022-12-29T16:19:05;9.90;1.00
25512;DHT22;13414;44.534;18.700;2022-12-29T16:21:36;9.80;99.90
25512;DHT22;13414;44.534;18.700;2022-12-29T16:24:07;9.70;1.00